sensor_id;sensor_type;location;lat;lon;timestamp;P1;durP1;ratioP1;P2;durP2;ratioP2
30850;SDS011;17567;48.382;9.102;2022-08-19T00:02:05;17.73;;;15.60;;
30850;SDS011;17567;48.382;9.102;2022-08-19T00:07:06;21.93;;;17.90;;
30850;SDS011;17567;48.382;9.102;2022-08-19T00:12:07;25.40;;;21.80;;
30850;SDS011;17567;48.382;9.102;2022-08-19T00:17:08;21.83;;;19.53;;
30850;SDS011;17567;48.382;9.102;2022-08-19T00:22:09;21.57;;;17.47;;
30850;SDS011;17567;48.382;9.102;2022-08-19T00:27:11;32.57;;;26.67;;
30850;SDS011;17567;48.382;9.102;2022-08-19T00:32:12;30.73;;;23.10;;
30850;SDS011;17567;48.382;9.102;2022-08-19T00:37:13;36.67;;;26.83;;
30850;SDS011;17567;48.382;9.102;2022-08-19T00:42:15;20.23;;;18.10;;
30850;SDS011;17567;48.382;9.102;2022-08-19T00:47:16;20.10;;;16.93;;
30850;SDS011;17567;48.382;9.102;2022-08-19T00:52:19;21.87;;;19.53;;
30850;SDS011;17567;48.382;9.102;2022-08-19T00:57:32;22.10;;;18.40;;
30850;SDS011;17567;48.382;9.102;2022-08-19T01:02:37;22.27;;;17.33;;
30850;SDS011;17567;48.382;9.102;2022-08-19T01:07:39;25.20;;;21.70;;
30850;SDS011;17567;48.382;9.102;2022-08-19T01:12:41;26.67;;;21.07;;
30850;SDS011;17567;48.382;9.102;2022-08-19T01:17:42;22.57;;;19.13;;
30850;SDS011;17567;48.382;9.102;2022-08-19T01:23:03;20.47;;;18.27;;
30850;SDS011;17567;48.382;9.102;2022-08-19T01:28:04;20.33;;;17.40;;
30850;SDS011;17567;48.382;9.102;2022-08-19T01:33:05;24.03;;;20.13;;
30850;SDS011;17567;48.382;9.102;2022-08-19T01:38:07;27.33;;;23.30;;
30850;SDS011;17567;48.382;9.102;2022-08-19T01:43:10;24.87;;;21.23;;
30850;SDS011;17567;48.382;9.102;2022-08-19T01:48:12;31.77;;;24.53;;
30850;SDS011;17567;48.382;9.102;2022-08-19T01:53:13;22.80;;;19.97;;
30850;SDS011;17567;48.382;9.102;2022-08-19T01:58:21;28.40;;;22.33;;
30850;SDS011;17567;48.382;9.102;2022-08-19T02:03:24;27.97;;;20.23;;
30850;SDS011;17567;48.382;9.102;2022-08-19T02:08:26;25.20;;;19.93;;
30850;SDS011;17567;48.382;9.102;2022-08-19T02:13:27;28.70;;;21.03;;
30850;SDS011;17567;48.382;9.102;2022-08-19T02:18:28;28.50;;;21.37;;
30850;SDS011;17567;48.382;9.102;2022-08-19T02:23:29;24.37;;;19.93;;
30850;SDS011;17567;48.382;9.102;2022-08-19T02:28:31;25.73;;;19.30;;
30850;SDS011;17567;48.382;9.102;2022-08-19T02:33:33;25.37;;;20.67;;
30850;SDS011;17567;48.382;9.102;2022-08-19T02:38:34;27.80;;;20.03;;
30850;SDS011;17567;48.382;9.102;2022-08-19T02:43:36;26.20;;;20.00;;
30850;SDS011;17567;48.382;9.102;2022-08-19T02:48:38;21.30;;;18.33;;
30850;SDS011;17567;48.382;9.102;2022-08-19T02:53:39;22.53;;;18.53;;
30850;SDS011;17567;48.382;9.102;2022-08-19T02:58:40;29.33;;;22.13;;
30850;SDS011;17567;48.382;9.102;2022-08-19T03:03:43;24.40;;;18.30;;
30850;SDS011;17567;48.382;9.102;2022-08-19T03:08:44;24.53;;;19.40;;
30850;SDS011;17567;48.382;9.102;2022-08-19T03:13:46;27.17;;;20.03;;
30850;SDS011;17567;48.382;9.102;2022-08-19T03:18:51;29.53;;;20.27;;
30850;SDS011;17567;48.382;9.102;2022-08-19T03:23:54;25.47;;;20.07;;
30850;SDS011;17567;48.382;9.102;2022-08-19T03:29:03;26.63;;;20.00;;
30850;SDS011;17567;48.382;9.102;2022-08-19T03:34:05;32.90;;;24.20;;
30850;SDS011;17567;48.382;9.102;2022-08-19T03:39:05;27.93;;;20.57;;
30850;SDS011;17567;48.382;9.102;2022-08-19T03:44:08;27.77;;;20.97;;
30850;SDS011;17567;48.382;9.102;2022-08-19T03:49:09;24.90;;;20.47;;
30850;SDS011;17567;48.382;9.102;2022-08-19T03:54:11;37.23;;;25.93;;
30850;SDS011;17567;48.382;9.102;2022-08-19T03:59:18;26.53;;;19.67;;
30850;SDS011;17567;48.382;9.102;2022-08-19T04:04:27;27.10;;;20.10;;
30850;SDS011;17567;48.382;9.102;2022-08-19T04:09:28;37.70;;;27.03;;
30850;SDS011;17567;48.382;9.102;2022-08-19T04:14:29;34.00;;;23.50;;
30850;SDS011;17567;48.382;9.102;2022-08-19T04:19:32;39.43;;;27.57;;
30850;SDS011;17567;48.382;9.102;2022-08-19T04:24:34;29.40;;;21.57;;
30850;SDS011;17567;48.382;9.102;2022-08-19T04:29:35;28.80;;;22.03;;
30850;SDS011;17567;48.382;9.102;2022-08-19T04:34:39;28.20;;;21.07;;
30850;SDS011;17567;48.382;9.102;2022-08-19T04:39:40;29.47;;;21.40;;
30850;SDS011;17567;48.382;9.102;2022-08-19T04:44:59;40.60;;;25.50;;
30850;SDS011;17567;48.382;9.102;2022-08-19T08:40:03;39.53;;;28.13;;
30850;SDS011;17567;48.382;9.102;2022-08-19T08:45:10;36.53;;;24.63;;
30850;SDS011;17567;48.382;9.102;2022-08-19T08:55:31;39.40;;;28.33;;
30850;SDS011;17567;48.382;9.102;2022-08-19T09:00:34;34.33;;;26.13;;
30850;SDS011;17567;48.382;9.102;2022-08-19T09:06:12;38.43;;;28.07;;
30850;SDS011;17567;48.382;9.102;2022-08-19T09:11:04;50.10;;;32.67;;
30850;SDS011;17567;48.382;9.102;2022-08-19T09:16:07;57.43;;;37.80;;
30850;SDS011;17567;48.382;9.102;2022-08-19T09:21:10;42.40;;;31.13;;
30850;SDS011;17567;48.382;9.102;2022-08-19T09:26:17;36.83;;;28.73;;
30850;SDS011;17567;48.382;9.102;2022-08-19T09:31:21;39.63;;;28.83;;
30850;SDS011;17567;48.382;9.102;2022-08-19T09:36:24;31.83;;;24.07;;
30850;SDS011;17567;48.382;9.102;2022-08-19T09:41:27;32.57;;;25.63;;
30850;SDS011;17567;48.382;9.102;2022-08-19T09:46:28;37.23;;;28.10;;
30850;SDS011;17567;48.382;9.102;2022-08-19T09:51:30;38.73;;;29.10;;
30850;SDS011;17567;48.382;9.102;2022-08-19T09:56:31;33.77;;;25.30;;
30850;SDS011;17567;48.382;9.102;2022-08-19T10:01:32;39.43;;;27.53;;
30850;SDS011;17567;48.382;9.102;2022-08-19T10:06:33;57.90;;;37.63;;
30850;SDS011;17567;48.382;9.102;2022-08-19T10:11:36;37.20;;;27.20;;
30850;SDS011;17567;48.382;9.102;2022-08-19T10:16:40;38.67;;;28.43;;
30850;SDS011;17567;48.382;9.102;2022-08-19T10:21:42;44.00;;;31.03;;
30850;SDS011;17567;48.382;9.102;2022-08-19T10:26:42;37.47;;;28.97;;
30850;SDS011;17567;48.382;9.102;2022-08-19T10:31:47;33.13;;;25.03;;
30850;SDS011;17567;48.382;9.102;2022-08-19T10:36:48;40.27;;;29.77;;
30850;SDS011;17567;48.382;9.102;2022-08-19T10:41:49;31.33;;;24.00;;
30850;SDS011;17567;48.382;9.102;2022-08-19T10:46:50;35.23;;;26.90;;
30850;SDS011;17567;48.382;9.102;2022-08-19T10:51:52;31.27;;;23.60;;
30850;SDS011;17567;48.382;9.102;2022-08-19T10:57:11;30.27;;;24.07;;
30850;SDS011;17567;48.382;9.102;2022-08-19T11:02:12;41.10;;;30.50;;
30850;SDS011;17567;48.382;9.102;2022-08-19T11:07:13;40.37;;;31.47;;
30850;SDS011;17567;48.382;9.102;2022-08-19T11:12:13;36.63;;;28.53;;
30850;SDS011;17567;48.382;9.102;2022-08-19T11:17:15;37.03;;;29.77;;
30850;SDS011;17567;48.382;9.102;2022-08-19T11:22:16;36.67;;;29.07;;
30850;SDS011;17567;48.382;9.102;2022-08-19T11:27:17;24.10;;;20.33;;
30850;SDS011;17567;48.382;9.102;2022-08-19T11:32:18;28.00;;;23.67;;
30850;SDS011;17567;48.382;9.102;2022-08-19T11:37:19;25.17;;;22.47;;
30850;SDS011;17567;48.382;9.102;2022-08-19T11:42:19;20.10;;;17.63;;
30850;SDS011;17567;48.382;9.102;2022-08-19T11:47:39;25.33;;;19.90;;
30850;SDS011;17567;48.382;9.102;2022-08-19T11:52:40;28.47;;;24.03;;
30850;SDS011;17567;48.382;9.102;2022-08-19T11:57:41;22.50;;;20.13;;
30850;SDS011;17567;48.382;9.102;2022-08-19T12:02:43;24.53;;;21.43;;
30850;SDS011;17567;48.382;9.102;2022-08-19T12:07:44;24.70;;;20.67;;
30850;SDS011;17567;48.382;9.102;2022-08-19T12:12:45;24.57;;;20.70;;
30850;SDS011;17567;48.382;9.102;2022-08-19T12:17:47;18.33;;;16.43;;
30850;SDS011;17567;48.382;9.102;2022-08-19T12:22:47;19.87;;;17.77;;
30850;SDS011;17567;48.382;9.102;2022-08-19T12:27:48;25.67;;;22.13;;
30850;SDS011;17567;48.382;9.102;2022-08-19T12:32:49;22.63;;;20.07;;
30850;SDS011;17567;48.382;9.102;2022-08-19T12:37:51;22.40;;;19.37;;
30850;SDS011;17567;48.382;9.102;2022-08-19T12:42:53;17.17;;;15.33;;
30850;SDS011;17567;48.382;9.102;2022-08-19T12:47:54;25.70;;;21.70;;
30850;SDS011;17567;48.382;9.102;2022-08-19T12:52:56;20.90;;;18.70;;
30850;SDS011;17567;48.382;9.102;2022-08-19T12:57:57;21.37;;;18.57;;
30850;SDS011;17567;48.382;9.102;2022-08-19T13:03:01;19.33;;;17.00;;
30850;SDS011;17567;48.382;9.102;2022-08-19T13:08:02;21.73;;;17.67;;
30850;SDS011;17567;48.382;9.102;2022-08-19T13:13:04;22.60;;;18.47;;
30850;SDS011;17567;48.382;9.102;2022-08-19T13:18:09;26.77;;;23.63;;
30850;SDS011;17567;48.382;9.102;2022-08-19T13:23:10;44.67;;;29.63;;
30850;SDS011;17567;48.382;9.102;2022-08-19T13:28:11;28.37;;;21.47;;
30850;SDS011;17567;48.382;9.102;2022-08-19T13:33:12;22.10;;;19.70;;
30850;SDS011;17567;48.382;9.102;2022-08-19T13:38:20;25.93;;;20.70;;
30850;SDS011;17567;48.382;9.102;2022-08-19T13:43:24;23.20;;;20.63;;
30850;SDS011;17567;48.382;9.102;2022-08-19T13:48:26;22.77;;;18.53;;
30850;SDS011;17567;48.382;9.102;2022-08-19T13:53:27;25.57;;;22.00;;
30850;SDS011;17567;48.382;9.102;2022-08-19T13:58:30;30.63;;;25.43;;
30850;SDS011;17567;48.382;9.102;2022-08-19T14:03:32;18.17;;;16.37;;
30850;SDS011;17567;48.382;9.102;2022-08-19T14:08:34;18.93;;;16.70;;
30850;SDS011;17567;48.382;9.102;2022-08-19T14:13:39;26.67;;;22.33;;
30850;SDS011;17567;48.382;9.102;2022-08-19T14:18:40;22.03;;;19.73;;
30850;SDS011;17567;48.382;9.102;2022-08-19T14:23:42;24.57;;;21.50;;
30850;SDS011;17567;48.382;9.102;2022-08-19T14:28:46;26.37;;;20.70;;
30850;SDS011;17567;48.382;9.102;2022-08-19T14:33:47;18.73;;;16.73;;
30850;SDS011;17567;48.382;9.102;2022-08-19T14:38:48;23.83;;;19.90;;
30850;SDS011;17567;48.382;9.102;2022-08-19T14:43:50;29.90;;;24.53;;
30850;SDS011;17567;48.382;9.102;2022-08-19T14:48:53;29.90;;;26.67;;
30850;SDS011;17567;48.382;9.102;2022-08-19T14:53:54;23.90;;;21.30;;
30850;SDS011;17567;48.382;9.102;2022-08-19T14:58:56;26.90;;;22.27;;
30850;SDS011;17567;48.382;9.102;2022-08-19T15:04:00;26.90;;;24.00;;
30850;SDS011;17567;48.382;9.102;2022-08-19T15:09:01;33.00;;;28.33;;
30850;SDS011;17567;48.382;9.102;2022-08-19T15:14:02;29.17;;;24.53;;
30850;SDS011;17567;48.382;9.102;2022-08-19T15:19:05;48.83;;;34.30;;
30850;SDS011;17567;48.382;9.102;2022-08-19T15:24:06;27.93;;;24.30;;
30850;SDS011;17567;48.382;9.102;2022-08-19T15:29:09;23.93;;;21.37;;
30850;SDS011;17567;48.382;9.102;2022-08-19T15:34:14;29.57;;;26.47;;
30850;SDS011;17567;48.382;9.102;2022-08-19T15:39:15;26.30;;;23.17;;
30850;SDS011;17567;48.382;9.102;2022-08-19T15:44:18;25.17;;;22.60;;
30850;SDS011;17567;48.382;9.102;2022-08-19T15:49:21;26.53;;;23.63;;
30850;SDS011;17567;48.382;9.102;2022-08-19T15:54:21;25.97;;;23.30;;
30850;SDS011;17567;48.382;9.102;2022-08-19T15:59:22;21.40;;;19.17;;
30850;SDS011;17567;48.382;9.102;2022-08-19T16:04:42;23.27;;;21.07;;
30850;SDS011;17567;48.382;9.102;2022-08-19T16:10:01;21.97;;;19.70;;
30850;SDS011;17567;48.382;9.102;2022-08-19T16:15:02;19.27;;;17.23;;
30850;SDS011;17567;48.382;9.102;2022-08-19T16:20:06;19.43;;;17.40;;
30850;SDS011;17567;48.382;9.102;2022-08-19T16:25:08;17.33;;;15.60;;
30850;SDS011;17567;48.382;9.102;2022-08-19T16:30:12;22.30;;;19.73;;
30850;SDS011;17567;48.382;9.102;2022-08-19T16:35:13;21.67;;;19.60;;
30850;SDS011;17567;48.382;9.102;2022-08-19T16:40:14;21.40;;;19.30;;
30850;SDS011;17567;48.382;9.102;2022-08-19T16:45:15;23.87;;;21.10;;
30850;SDS011;17567;48.382;9.102;2022-08-19T16:50:20;25.23;;;20.80;;
30850;SDS011;17567;48.382;9.102;2022-08-19T16:55:21;23.27;;;20.87;;
30850;SDS011;17567;48.382;9.102;2022-08-19T17:00:22;23.57;;;21.27;;
30850;SDS011;17567;48.382;9.102;2022-08-19T17:05:23;22.63;;;20.33;;
30850;SDS011;17567;48.382;9.102;2022-08-19T17:10:24;22.27;;;19.40;;
30850;SDS011;17567;48.382;9.102;2022-08-19T17:15:25;20.53;;;18.53;;
30850;SDS011;17567;48.382;9.102;2022-08-19T17:20:26;24.13;;;20.77;;
30850;SDS011;17567;48.382;9.102;2022-08-19T17:25:28;21.63;;;19.43;;
30850;SDS011;17567;48.382;9.102;2022-08-19T17:30:30;24.20;;;21.40;;
30850;SDS011;17567;48.382;9.102;2022-08-19T17:35:31;25.37;;;22.63;;
30850;SDS011;17567;48.382;9.102;2022-08-19T17:40:33;21.20;;;19.00;;
30850;SDS011;17567;48.382;9.102;2022-08-19T17:45:34;26.43;;;22.13;;
30850;SDS011;17567;48.382;9.102;2022-08-19T17:50:37;24.00;;;21.40;;
30850;SDS011;17567;48.382;9.102;2022-08-19T17:55:39;26.07;;;21.17;;
30850;SDS011;17567;48.382;9.102;2022-08-19T18:00:40;20.90;;;18.70;;
30850;SDS011;17567;48.382;9.102;2022-08-19T18:05:41;22.83;;;20.67;;
30850;SDS011;17567;48.382;9.102;2022-08-19T18:10:43;26.67;;;21.27;;
30850;SDS011;17567;48.382;9.102;2022-08-19T18:15:44;22.47;;;20.17;;
30850;SDS011;17567;48.382;9.102;2022-08-19T18:20:47;22.90;;;19.27;;
30850;SDS011;17567;48.382;9.102;2022-08-19T18:25:50;19.77;;;17.63;;
30850;SDS011;17567;48.382;9.102;2022-08-19T18:30:51;18.50;;;16.70;;
30850;SDS011;17567;48.382;9.102;2022-08-19T18:35:52;20.53;;;18.17;;
30850;SDS011;17567;48.382;9.102;2022-08-19T18:40:54;19.00;;;17.10;;
30850;SDS011;17567;48.382;9.102;2022-08-19T18:46:14;21.00;;;19.00;;
30850;SDS011;17567;48.382;9.102;2022-08-19T18:51:33;19.73;;;17.63;;
30850;SDS011;17567;48.382;9.102;2022-08-19T18:56:34;18.60;;;16.80;;
30850;SDS011;17567;48.382;9.102;2022-08-19T19:01:39;21.07;;;18.93;;
30850;SDS011;17567;48.382;9.102;2022-08-19T19:06:51;20.20;;;17.00;;
30850;SDS011;17567;48.382;9.102;2022-08-19T19:11:54;17.40;;;15.20;;
30850;SDS011;17567;48.382;9.102;2022-08-19T19:17:00;20.60;;;18.57;;
30850;SDS011;17567;48.382;9.102;2022-08-19T19:22:03;21.53;;;19.33;;
30850;SDS011;17567;48.382;9.102;2022-08-19T19:27:06;19.27;;;17.27;;
30850;SDS011;17567;48.382;9.102;2022-08-19T19:32:10;21.80;;;19.70;;
30850;SDS011;17567;48.382;9.102;2022-08-19T19:37:27;23.23;;;18.53;;
30850;SDS011;17567;48.382;9.102;2022-08-19T19:42:30;22.50;;;17.63;;
30850;SDS011;17567;48.382;9.102;2022-08-19T19:47:32;20.40;;;18.30;;
30850;SDS011;17567;48.382;9.102;2022-08-19T19:52:33;18.97;;;16.97;;
30850;SDS011;17567;48.382;9.102;2022-08-19T19:57:34;22.00;;;19.70;;
30850;SDS011;17567;48.382;9.102;2022-08-19T20:02:39;19.63;;;17.77;;
30850;SDS011;17567;48.382;9.102;2022-08-19T20:07:40;20.80;;;18.70;;
30850;SDS011;17567;48.382;9.102;2022-08-19T20:13:00;23.37;;;20.83;;
30850;SDS011;17567;48.382;9.102;2022-08-19T20:18:02;25.93;;;21.77;;
30850;SDS011;17567;48.382;9.102;2022-08-19T20:23:03;27.03;;;22.53;;
30850;SDS011;17567;48.382;9.102;2022-08-19T20:28:07;18.70;;;16.90;;
30850;SDS011;17567;48.382;9.102;2022-08-19T20:33:11;21.90;;;19.60;;
30850;SDS011;17567;48.382;9.102;2022-08-19T20:38:12;18.27;;;16.30;;
30850;SDS011;17567;48.382;9.102;2022-08-19T20:43:14;21.57;;;19.47;;
30850;SDS011;17567;48.382;9.102;2022-08-19T20:48:15;21.73;;;19.43;;
30850;SDS011;17567;48.382;9.102;2022-08-19T20:53:17;23.93;;;20.70;;
30850;SDS011;17567;48.382;9.102;2022-08-19T20:58:19;19.60;;;17.23;;
30850;SDS011;17567;48.382;9.102;2022-08-19T21:03:23;17.27;;;15.47;;
30850;SDS011;17567;48.382;9.102;2022-08-19T21:08:25;16.50;;;14.83;;
30850;SDS011;17567;48.382;9.102;2022-08-19T21:13:26;17.37;;;15.57;;
30850;SDS011;17567;48.382;9.102;2022-08-19T21:18:27;16.47;;;14.80;;
30850;SDS011;17567;48.382;9.102;2022-08-19T21:23:28;17.10;;;15.30;;
30850;SDS011;17567;48.382;9.102;2022-08-19T21:28:30;16.10;;;14.47;;
30850;SDS011;17567;48.382;9.102;2022-08-19T21:33:31;17.90;;;16.07;;
30850;SDS011;17567;48.382;9.102;2022-08-19T21:38:32;15.27;;;13.87;;
30850;SDS011;17567;48.382;9.102;2022-08-19T21:43:34;15.80;;;14.13;;
30850;SDS011;17567;48.382;9.102;2022-08-19T21:48:36;15.20;;;13.53;;
30850;SDS011;17567;48.382;9.102;2022-08-19T21:53:37;19.37;;;16.30;;
30850;SDS011;17567;48.382;9.102;2022-08-19T21:58:38;18.00;;;15.60;;
30850;SDS011;17567;48.382;9.102;2022-08-19T22:03:41;17.87;;;16.07;;
30850;SDS011;17567;48.382;9.102;2022-08-19T22:08:42;14.33;;;13.03;;
30850;SDS011;17567;48.382;9.102;2022-08-19T22:13:44;16.17;;;14.00;;
30850;SDS011;17567;48.382;9.102;2022-08-19T22:18:46;17.53;;;15.70;;
30850;SDS011;17567;48.382;9.102;2022-08-19T22:23:54;15.53;;;14.07;;
30850;SDS011;17567;48.382;9.102;2022-08-19T22:28:55;14.33;;;12.93;;
30850;SDS011;17567;48.382;9.102;2022-08-19T22:33:57;14.37;;;13.07;;
30850;SDS011;17567;48.382;9.102;2022-08-19T22:39:00;15.63;;;14.13;;
30850;SDS011;17567;48.382;9.102;2022-08-19T22:44:03;12.80;;;11.43;;
30850;SDS011;17567;48.382;9.102;2022-08-19T22:49:04;14.30;;;12.50;;
30850;SDS011;17567;48.382;9.102;2022-08-19T22:54:05;12.77;;;11.47;;
30850;SDS011;17567;48.382;9.102;2022-08-19T22:59:08;12.47;;;10.87;;
30850;SDS011;17567;48.382;9.102;2022-08-19T23:04:09;13.23;;;11.77;;
30850;SDS011;17567;48.382;9.102;2022-08-19T23:09:10;14.47;;;10.90;;
30850;SDS011;17567;48.382;9.102;2022-08-19T23:14:12;11.77;;;10.53;;
30850;SDS011;17567;48.382;9.102;2022-08-19T23:19:17;11.10;;;10.10;;
30850;SDS011;17567;48.382;9.102;2022-08-19T23:24:18;9.30;;;8.60;;
30850;SDS011;17567;48.382;9.102;2022-08-19T23:29:19;9.67;;;8.87;;
30850;SDS011;17567;48.382;9.102;2022-08-19T23:34:39;8.83;;;8.03;;
30850;SDS011;17567;48.382;9.102;2022-08-19T23:39:40;9.73;;;8.30;;
30850;SDS011;17567;48.382;9.102;2022-08-19T23:44:42;12.37;;;7.90;;
30850;SDS011;17567;48.382;9.102;2022-08-19T23:49:43;8.53;;;7.70;;
30850;SDS011;17567;48.382;9.102;2022-08-19T23:54:46;9.03;;;8.20;;
30850;SDS011;17567;48.382;9.102;2022-08-19T23:59:47;8.67;;;7.50;;
